MAPA DE AEROPUERTO

INFORMACIÓN METAR y TAF

METAR FOR LEMD
ADDS - METARS form results

(1111 UTC 29 January 2022)
Data provider http://aviationweather.gov/metar/data/
 
METAR text: LEMD 291100Z VRB01KT CAVOK 07/M06 Q1035 NOSIG
Conditions at: LEMD (MADRID/BARAJAS , ES) observed 1100 UTC 29 January 2022
Temperature: 7.0°C (45°F)
Dewpoint: -6.0°C (21°F) [RH = 39%]
Pressure (altimeter): 30.56 inches Hg (1035.0 mb)
Winds: variable direction winds at 1 MPH (1 knots; 0.5 m/s)
Visibility: 6 or more miles (10+ km)
Ceiling: ceiling and visibility are OK
Clouds: unknown
Weather: no significant weather observed at this time

METAR text: LEMD 291030Z 36001KT CAVOK 05/M06 Q1035 NOSIG
Conditions at: LEMD (MADRID/BARAJAS , ES) observed 1030 UTC 29 January 2022
Temperature: 5.0°C (41°F)
Dewpoint: -6.0°C (21°F) [RH = 45%]
Pressure (altimeter): 30.56 inches Hg (1035.0 mb)
Winds: from the N (360 degrees) at 1 MPH (1 knots; 0.5 m/s)
Visibility: 6 or more miles (10+ km)
Ceiling: ceiling and visibility are OK
Clouds: unknown
Weather: no significant weather observed at this time

Forecast for: LEMD (MADRID/BARAJAS , ES)
Text: TAF LEMD 290500Z 2906/3012 34005KT CAVOK TX16/2915Z TNM04/2907Z
Forecast period: 0600 UTC 29 January 2022 to 1200 UTC 30 January 2022
Forecast type: FROM: standard forecast or significant change
Winds: from the NNW (340 degrees) at 6 MPH (5 knots; 2.6 m/s)
Visibility: 6 or more miles (10+ km)
Ceiling: unknown
Clouds: missing
Weather: no significant weather forecast for this period
Text: PROB40
Forecast period: 1000 to 1700 UTC 29 January 2022
Forecast type: TEMPORARY: The following changes expected for less than half the time period
Winds: from the NE (40 degrees) at 7 MPH (6 knots; 3.1 m/s)
Visibility: missing
Ceiling: unknown
Clouds: missing
Weather: no significant weather forecast for this period